createdAt,value
2017-08-15T00:00:12.004Z,0
2017-08-15T00:01:00.074Z,0
2017-08-15T00:01:49.284Z,0
2017-08-15T00:02:37.099Z,0
2017-08-15T00:03:25.121Z,0
2017-08-15T00:04:14.276Z,0
2017-08-15T00:05:02.211Z,0
2017-08-15T00:05:50.349Z,0
2017-08-15T00:06:38.908Z,0
2017-08-15T00:07:27.063Z,0
2017-08-15T00:08:15.122Z,0
2017-08-15T00:09:04.517Z,0
2017-08-15T00:09:52.408Z,0
2017-08-15T00:10:40.602Z,0
2017-08-15T00:11:28.383Z,0
2017-08-15T00:12:16.353Z,0
2017-08-15T00:13:10.748Z,0
2017-08-15T00:13:59.601Z,0
2017-08-15T00:14:47.659Z,0
2017-08-15T00:15:41.952Z,0
2017-08-15T00:16:29.367Z,0
2017-08-15T00:17:18.856Z,0
2017-08-15T00:18:07.062Z,0
2017-08-15T00:19:00.883Z,0
2017-08-15T00:19:49.078Z,0
2017-08-15T00:20:37.108Z,0
2017-08-15T00:21:26.328Z,0
2017-08-15T00:22:14.162Z,0
2017-08-15T00:23:01.810Z,0
2017-08-15T00:23:50.811Z,0
2017-08-15T00:24:38.843Z,0
2017-08-15T00:25:28.420Z,0
2017-08-15T00:26:16.501Z,0
2017-08-15T00:27:10.447Z,0
2017-08-15T00:28:05.485Z,0
2017-08-15T00:28:53.577Z,0
2017-08-15T00:29:41.533Z,0
2017-08-15T00:30:30.660Z,0
2017-08-15T00:31:18.218Z,0
2017-08-15T00:32:06.357Z,0
2017-08-15T00:32:55.638Z,0
2017-08-15T00:33:43.409Z,0
2017-08-15T00:34:31.492Z,0
2017-08-15T00:35:20.788Z,0
2017-08-15T00:36:08.954Z,0
2017-08-15T00:36:56.701Z,0
2017-08-15T00:37:45.015Z,0
2017-08-15T00:38:33.094Z,0
2017-08-15T00:39:20.628Z,0
2017-08-15T00:40:09.288Z,0
2017-08-15T00:41:02.813Z,0
2017-08-15T00:41:50.990Z,0
2017-08-15T00:42:39.006Z,0
2017-08-15T00:43:28.006Z,0
2017-08-15T00:44:15.999Z,0
2017-08-15T00:45:04.442Z,0
2017-08-15T00:45:53.326Z,0
2017-08-15T00:46:41.590Z,0
2017-08-15T00:47:29.222Z,0
2017-08-15T00:48:18.260Z,0
2017-08-15T00:49:06.400Z,0
2017-08-15T00:49:54.597Z,0
2017-08-15T00:50:42.844Z,0
2017-08-15T00:51:31.495Z,0
2017-08-15T00:52:19.519Z,0
2017-08-15T00:53:08.932Z,0
2017-08-15T00:53:57.950Z,0
2017-08-15T00:54:46.859Z,0
2017-08-15T00:55:35.174Z,0
2017-08-15T00:56:23.714Z,0
2017-08-15T00:57:12.098Z,0
2017-08-15T00:58:00.218Z,0
2017-08-15T00:58:47.770Z,0
2017-08-15T00:59:36.812Z,0
2017-08-15T01:00:24.929Z,0
2017-08-15T01:01:14.297Z,0
2017-08-15T01:02:08.102Z,0
2017-08-15T01:03:07.975Z,0
2017-08-15T01:04:02.648Z,0
2017-08-15T01:05:02.296Z,0
2017-08-15T01:05:57.317Z,0
2017-08-15T01:06:57.201Z,0
2017-08-15T01:07:51.418Z,0
2017-08-15T01:08:51.236Z,0
2017-08-15T01:09:46.739Z,0
2017-08-15T01:10:41.676Z,0
2017-08-15T01:11:41.343Z,0
2017-08-15T01:12:36.758Z,0
2017-08-15T01:13:36.744Z,0
2017-08-15T01:14:36.491Z,0
2017-08-15T01:15:37.008Z,0
2017-08-15T01:16:30.920Z,0
2017-08-15T01:17:31.145Z,0
2017-08-15T01:18:26.140Z,0
2017-08-15T01:19:21.004Z,0
2017-08-15T01:20:22.157Z,0
2017-08-15T01:21:22.178Z,0
2017-08-15T01:22:17.150Z,0
2017-08-15T01:23:12.179Z,0
2017-08-15T01:24:06.223Z,0
2017-08-15T01:24:54.381Z,0
2017-08-15T01:25:42.378Z,0
2017-08-15T01:26:30.421Z,0
2017-08-15T01:27:19.031Z,0
2017-08-15T01:28:07.133Z,0
2017-08-15T01:28:55.081Z,0
2017-08-15T01:29:44.262Z,0
2017-08-15T01:30:32.629Z,0
2017-08-15T01:31:32.226Z,0
2017-08-15T01:32:32.542Z,0
2017-08-15T01:33:26.513Z,0
2017-08-15T01:34:26.427Z,0
2017-08-15T01:35:21.761Z,0
2017-08-15T01:36:15.462Z,0
2017-08-15T01:37:10.913Z,0
2017-08-15T01:38:04.961Z,0
2017-08-15T01:38:58.579Z,0
2017-08-15T01:40:00.027Z,0
2017-08-15T01:41:01.103Z,0
2017-08-15T01:41:50.008Z,0
2017-08-15T01:42:44.897Z,0
2017-08-15T01:43:34.234Z,0
2017-08-15T01:44:22.753Z,0
2017-08-15T01:45:16.991Z,0
2017-08-15T01:46:05.877Z,0
2017-08-15T01:46:54.306Z,0
2017-08-15T01:47:42.917Z,0
2017-08-15T01:48:38.025Z,0
2017-08-15T01:49:38.035Z,0
2017-08-15T01:50:27.387Z,0
2017-08-15T01:51:15.291Z,0
2017-08-15T01:52:03.242Z,0
2017-08-15T01:52:51.217Z,0
2017-08-15T01:53:39.295Z,0
2017-08-15T01:54:34.667Z,0
2017-08-15T01:55:22.553Z,0
2017-08-15T01:56:10.426Z,0
2017-08-15T01:56:58.386Z,0
2017-08-15T01:57:47.825Z,0
2017-08-15T01:58:41.534Z,0
2017-08-15T01:59:30.045Z,0
2017-08-15T02:00:18.013Z,0
2017-08-15T02:01:05.588Z,0
2017-08-15T02:02:07.183Z,0
2017-08-15T02:03:06.844Z,0
2017-08-15T02:03:54.771Z,0
2017-08-15T02:04:42.883Z,0
2017-08-15T02:05:31.377Z,0
2017-08-15T02:06:19.898Z,0
2017-08-15T02:07:13.960Z,0
2017-08-15T02:08:03.076Z,0
2017-08-15T02:08:51.169Z,0
2017-08-15T02:09:39.134Z,0
2017-08-15T02:10:27.557Z,0
2017-08-15T02:11:15.395Z,0
2017-08-15T02:12:03.206Z,0
2017-08-15T02:12:51.560Z,0
2017-08-15T02:13:39.299Z,0
2017-08-15T02:14:33.635Z,0
2017-08-15T02:15:34.966Z,0
2017-08-15T02:16:23.448Z,0
2017-08-15T02:17:11.697Z,0
2017-08-15T02:18:05.960Z,0
2017-08-15T02:18:54.951Z,0
2017-08-15T02:19:43.647Z,0
2017-08-15T02:20:32.186Z,0
2017-08-15T02:21:20.664Z,0
2017-08-15T02:22:09.121Z,0
2017-08-15T02:22:57.265Z,0
2017-08-15T02:23:44.825Z,0
2017-08-15T02:24:33.281Z,0
2017-08-15T02:25:27.358Z,0
2017-08-15T02:26:15.038Z,0
2017-08-15T02:27:03.253Z,0
2017-08-15T02:27:51.118Z,0
2017-08-15T02:28:39.069Z,0
2017-08-15T02:29:27.098Z,0
2017-08-15T02:30:16.616Z,0
2017-08-15T02:31:04.549Z,0
2017-08-15T02:31:52.310Z,0
2017-08-15T02:32:41.346Z,0
2017-08-15T02:33:29.586Z,0
2017-08-15T02:34:17.534Z,0
2017-08-15T02:35:06.821Z,0
2017-08-15T02:35:54.476Z,0
2017-08-15T02:36:42.911Z,0
2017-08-15T02:37:31.466Z,0
2017-08-15T02:38:20.150Z,0
2017-08-15T02:39:07.694Z,0
2017-08-15T02:39:56.896Z,0
2017-08-15T02:40:45.261Z,0
2017-08-15T02:41:32.862Z,0
2017-08-15T02:42:21.886Z,0
2017-08-15T02:43:10.064Z,0
2017-08-15T02:43:58.009Z,0
2017-08-15T02:44:47.215Z,0
2017-08-15T02:45:35.524Z,0
2017-08-15T02:46:23.237Z,0
2017-08-15T02:47:12.483Z,0
2017-08-15T02:48:00.538Z,0
2017-08-15T02:48:48.172Z,0
2017-08-15T02:49:37.577Z,0
2017-08-15T02:50:25.823Z,0
2017-08-15T02:51:13.692Z,0
2017-08-15T02:52:02.427Z,0
2017-08-15T02:52:50.858Z,0
2017-08-15T02:53:38.838Z,0
2017-08-15T02:54:27.475Z,0
2017-08-15T02:55:16.038Z,0
2017-08-15T02:56:03.562Z,0
2017-08-15T02:56:52.032Z,0
2017-08-15T02:57:41.111Z,0
2017-08-15T02:58:28.762Z,0
2017-08-15T02:59:18.256Z,0
2017-08-15T03:00:06.275Z,0
2017-08-15T03:00:54.305Z,0
2017-08-15T03:01:43.383Z,0
2017-08-15T03:02:31.452Z,0
2017-08-15T03:03:19.474Z,0
2017-08-15T03:04:08.517Z,0
2017-08-15T03:04:56.583Z,0
2017-08-15T03:05:44.513Z,0
2017-08-15T03:06:33.671Z,0
2017-08-15T03:07:21.681Z,0
2017-08-15T03:08:09.666Z,0
2017-08-15T03:08:57.740Z,0
2017-08-15T03:09:46.866Z,0
2017-08-15T03:10:34.927Z,0
2017-08-15T03:11:22.978Z,0
2017-08-15T03:12:11.899Z,0
2017-08-15T03:13:00.019Z,0
2017-08-15T03:13:49.060Z,0
2017-08-15T03:14:37.171Z,0
2017-08-15T03:15:25.151Z,0
2017-08-15T03:16:14.245Z,0
2017-08-15T03:17:02.183Z,0
2017-08-15T03:17:50.257Z,0
2017-08-15T03:18:39.282Z,0
2017-08-15T03:19:27.395Z,0
2017-08-15T03:20:15.350Z,0
2017-08-15T03:21:04.532Z,0
2017-08-15T03:21:52.464Z,0
2017-08-15T03:22:40.622Z,0
2017-08-15T03:23:29.530Z,0
2017-08-15T03:24:17.541Z,0
2017-08-15T03:25:05.656Z,0
2017-08-15T03:25:53.784Z,0
2017-08-15T03:26:42.747Z,0
2017-08-15T03:27:30.833Z,0
2017-08-15T03:28:19.742Z,0
2017-08-15T03:29:07.960Z,0
2017-08-15T03:29:56.056Z,0
2017-08-15T03:30:45.004Z,0
2017-08-15T03:31:32.923Z,0
2017-08-15T03:32:21.001Z,0
2017-08-15T03:33:09.126Z,4
2017-08-15T03:33:58.259Z,4
2017-08-15T03:34:46.319Z,4
2017-08-15T03:35:34.337Z,0
2017-08-15T03:36:23.289Z,4
2017-08-15T03:37:11.312Z,4
2017-08-15T03:38:00.337Z,4
2017-08-15T03:38:48.373Z,4
2017-08-15T03:39:36.406Z,4
2017-08-15T03:40:25.660Z,8
2017-08-15T03:41:13.576Z,8
2017-08-15T03:42:01.520Z,4
2017-08-15T03:42:50.683Z,8
2017-08-15T03:43:38.587Z,8
2017-08-15T03:44:26.699Z,8
2017-08-15T03:45:15.280Z,16
2017-08-15T03:46:03.428Z,16
2017-08-15T03:46:51.756Z,16
2017-08-15T03:47:40.370Z,16
2017-08-15T03:48:28.540Z,20
2017-08-15T03:49:16.617Z,24
2017-08-15T03:50:06.046Z,28
2017-08-15T03:50:54.146Z,28
2017-08-15T03:51:42.119Z,36
2017-08-15T03:52:31.164Z,40
2017-08-15T03:53:19.158Z,40
2017-08-15T03:54:07.353Z,48
2017-08-15T03:54:56.299Z,56
2017-08-15T03:55:44.375Z,60
2017-08-15T03:56:32.405Z,64
2017-08-15T03:57:21.517Z,72
2017-08-15T03:58:09.448Z,84
2017-08-15T03:58:57.556Z,88
2017-08-15T03:59:46.580Z,100
2017-08-15T04:00:34.589Z,108
2017-08-15T04:01:22.662Z,120
2017-08-15T04:02:11.711Z,132
2017-08-15T04:02:59.741Z,144
2017-08-15T04:03:47.824Z,156
2017-08-15T04:04:36.766Z,172
2017-08-15T04:05:24.934Z,184
2017-08-15T04:06:14.001Z,204
2017-08-15T04:07:02.096Z,220
2017-08-15T04:07:50.018Z,240
2017-08-15T04:08:39.056Z,260
2017-08-15T04:09:27.197Z,280
2017-08-15T04:10:15.132Z,304
2017-08-15T04:11:04.276Z,328
2017-08-15T04:11:52.353Z,352
2017-08-15T04:12:41.254Z,380
2017-08-15T04:13:29.340Z,408
2017-08-15T04:14:17.451Z,440
2017-08-15T04:15:06.531Z,472
2017-08-15T04:15:54.467Z,504
2017-08-15T04:16:42.564Z,536
2017-08-15T04:17:30.537Z,576
2017-08-15T04:18:19.608Z,612
2017-08-15T04:19:07.747Z,648
2017-08-15T04:19:56.692Z,688
2017-08-15T04:20:44.691Z,724
2017-08-15T04:21:32.857Z,756
2017-08-15T04:22:21.940Z,796
2017-08-15T04:23:10.010Z,832
2017-08-15T04:23:58.997Z,868
2017-08-15T04:24:47.050Z,908
2017-08-15T04:25:35.103Z,952
2017-08-15T04:26:24.079Z,992
2017-08-15T04:27:12.190Z,1032
2017-08-15T04:28:00.322Z,1068
2017-08-15T04:28:49.272Z,1100
2017-08-15T04:29:37.294Z,1128
2017-08-15T04:30:26.244Z,1156
2017-08-15T04:31:14.400Z,1188
2017-08-15T04:32:02.386Z,1224
2017-08-15T04:32:51.504Z,1268
2017-08-15T04:33:39.567Z,1320
2017-08-15T04:34:27.584Z,1388
2017-08-15T04:35:16.538Z,1460
2017-08-15T04:36:04.628Z,1536
2017-08-15T04:36:53.786Z,1632
2017-08-15T04:37:41.744Z,1720
2017-08-15T04:38:29.741Z,1804
2017-08-15T04:39:18.885Z,1892
2017-08-15T04:40:06.983Z,1976
2017-08-15T04:40:54.946Z,2064
2017-08-15T04:41:42.970Z,2180
2017-08-15T04:42:31.993Z,2316
2017-08-15T04:43:20.045Z,2460
2017-08-15T04:44:09.207Z,2624
2017-08-15T04:44:57.112Z,2772
2017-08-15T04:45:45.279Z,2904
2017-08-15T04:46:33.250Z,3016
2017-08-15T04:47:26.877Z,3112
2017-08-15T04:48:15.225Z,3188
2017-08-15T04:49:09.187Z,3264
2017-08-15T04:49:57.386Z,3312
2017-08-15T04:50:45.365Z,3364
2017-08-15T04:51:33.443Z,3416
2017-08-15T04:52:21.435Z,3464
2017-08-15T04:53:10.370Z,3524
2017-08-15T04:53:58.526Z,3580
2017-08-15T04:54:46.788Z,3628
2017-08-15T04:55:41.470Z,3668
2017-08-15T04:56:35.790Z,3712
2017-08-15T04:57:24.598Z,3760
2017-08-15T04:58:13.600Z,3820
2017-08-15T04:59:01.992Z,3872
2017-08-15T04:59:49.943Z,3944
2017-08-15T05:00:38.056Z,4044
2017-08-15T05:01:27.012Z,4164
2017-08-15T05:02:15.082Z,4308
2017-08-15T05:03:09.084Z,4480
2017-08-15T05:03:57.163Z,4624
2017-08-15T05:04:46.312Z,4728
2017-08-15T05:05:35.245Z,4828
2017-08-15T05:06:29.279Z,4956
2017-08-15T05:07:18.212Z,5076
2017-08-15T05:08:06.427Z,5208
2017-08-15T05:08:54.533Z,5328
2017-08-15T05:09:43.520Z,5428
2017-08-15T05:10:31.614Z,5504
2017-08-15T05:11:20.600Z,5588
2017-08-15T05:12:09.640Z,5748
2017-08-15T05:13:03.677Z,5964
2017-08-15T05:13:52.688Z,6176
2017-08-15T05:14:46.714Z,6792
2017-08-15T05:15:41.973Z,8376
2017-08-15T05:16:41.786Z,9048
2017-08-15T05:17:41.852Z,8860
2017-08-15T05:18:41.994Z,8844
2017-08-15T05:19:47.984Z,7596
2017-08-15T05:20:43.061Z,7184
2017-08-15T05:21:32.140Z,7900
2017-08-15T05:22:26.107Z,9424
2017-08-15T05:23:26.038Z,9168
2017-08-15T05:24:14.215Z,9812
2017-08-15T05:25:08.203Z,10232
2017-08-15T05:25:56.298Z,10336
2017-08-15T05:26:45.408Z,10368
2017-08-15T05:27:33.323Z,11036
2017-08-15T05:28:27.359Z,14208
2017-08-15T05:29:27.430Z,15264
2017-08-15T05:30:22.480Z,15104
2017-08-15T05:31:17.602Z,14784
2017-08-15T05:32:11.536Z,15680
2017-08-15T05:33:11.576Z,17280
2017-08-15T05:34:06.714Z,17664
2017-08-15T05:34:55.669Z,17408
2017-08-15T05:35:49.898Z,17056
2017-08-15T05:36:43.878Z,17472
2017-08-15T05:37:32.906Z,17632
2017-08-15T05:38:27.972Z,18592
2017-08-15T05:39:27.891Z,20992
2017-08-15T05:40:22.954Z,21792
2017-08-15T05:41:17.917Z,20512
2017-08-15T05:42:07.020Z,20192
2017-08-15T05:43:07.159Z,18400
2017-08-15T05:44:07.359Z,15552
2017-08-15T05:44:56.108Z,14464
2017-08-15T05:45:45.283Z,15648
2017-08-15T05:46:45.290Z,18240
2017-08-15T05:47:39.434Z,19808
2017-08-15T05:48:33.363Z,20640
2017-08-15T05:49:33.432Z,21824
2017-08-15T05:50:21.535Z,21600
2017-08-15T05:51:16.447Z,23264
2017-08-15T05:52:16.508Z,22880
2017-08-15T05:53:05.570Z,25376
2017-08-15T05:53:59.678Z,19424
2017-08-15T05:54:59.798Z,19808
2017-08-15T05:55:53.705Z,20800
2017-08-15T05:56:48.700Z,20672
2017-08-15T05:57:43.782Z,20640
2017-08-15T05:58:37.886Z,20640
2017-08-15T05:59:26.000Z,24704
2017-08-15T06:00:15.047Z,25568
2017-08-15T06:01:10.086Z,25856
2017-08-15T06:01:58.086Z,24768
2017-08-15T06:02:52.131Z,23680
2017-08-15T06:03:46.249Z,22688
2017-08-15T06:04:46.298Z,23264
2017-08-15T06:05:35.487Z,22976
2017-08-15T06:06:24.395Z,23520
2017-08-15T06:07:18.464Z,25216
2017-08-15T06:08:06.491Z,27072
2017-08-15T06:09:01.496Z,28640
2017-08-15T06:09:50.498Z,29024
2017-08-15T06:10:44.581Z,28352
2017-08-15T06:11:38.749Z,27552
2017-08-15T06:12:33.740Z,27904
2017-08-15T06:13:27.741Z,29056
2017-08-15T06:14:21.861Z,30080
2017-08-15T06:15:10.809Z,31008
2017-08-15T06:16:00.004Z,31744
2017-08-15T06:16:54.953Z,32256
2017-08-15T06:17:55.032Z,33248
2017-08-15T06:18:50.042Z,33856
2017-08-15T06:19:44.212Z,33600
2017-08-15T06:20:38.230Z,30208
2017-08-15T06:21:32.176Z,29952
2017-08-15T06:22:27.400Z,30848
2017-08-15T06:23:21.311Z,30432
2017-08-15T06:24:10.378Z,31552
2017-08-15T06:25:10.488Z,29536
2017-08-15T06:26:10.481Z,27712
2017-08-15T06:27:04.551Z,29248
2017-08-15T06:27:58.524Z,28128
2017-08-15T06:28:46.616Z,28416
2017-08-15T06:29:40.685Z,28736
2017-08-15T06:30:29.784Z,28544
2017-08-15T06:31:23.764Z,30432
2017-08-15T06:32:17.820Z,30368
2017-08-15T06:33:06.895Z,31424
2017-08-15T06:33:56.026Z,30272
2017-08-15T06:34:49.960Z,31488
2017-08-15T06:35:39.161Z,31296
2017-08-15T06:36:28.064Z,32032
2017-08-15T06:37:23.201Z,27424
2017-08-15T06:38:18.267Z,26816
2017-08-15T06:39:12.340Z,34112
2017-08-15T06:40:01.444Z,36640
2017-08-15T06:40:49.568Z,35584
2017-08-15T06:41:49.510Z,35200
2017-08-15T06:42:43.537Z,35808
2017-08-15T06:43:38.667Z,35680
2017-08-15T06:44:32.800Z,35712
2017-08-15T06:45:32.745Z,37344
2017-08-15T06:46:21.839Z,34112
2017-08-15T06:47:10.771Z,27040
2017-08-15T06:47:59.958Z,27808
2017-08-15T06:48:54.002Z,30656
2017-08-15T06:49:47.975Z,32800
2017-08-15T06:50:43.062Z,31936
2017-08-15T06:51:37.178Z,26688
2017-08-15T06:52:31.178Z,28160
2017-08-15T06:53:20.242Z,34752
2017-08-15T06:54:14.329Z,36704
2017-08-15T06:55:09.352Z,39840
2017-08-15T06:56:04.529Z,42912
2017-08-15T06:56:53.442Z,43712
2017-08-15T06:57:48.495Z,43872
2017-08-15T06:58:42.556Z,44992
2017-08-15T06:59:36.597Z,48544
2017-08-15T07:00:25.683Z,52704
2017-08-15T07:01:20.912Z,54560
2017-08-15T07:02:15.941Z,55904
2017-08-15T07:03:11.080Z,56480
2017-08-15T07:04:11.009Z,55584
2017-08-15T07:05:05.132Z,58048
2017-08-15T07:05:54.143Z,57696
2017-08-15T07:06:48.342Z,58752
2017-08-15T07:07:37.301Z,40096
2017-08-15T07:08:31.430Z,32256
2017-08-15T07:09:25.459Z,32800
2017-08-15T07:10:14.710Z,36256
2017-08-15T07:11:08.500Z,68480
2017-08-15T07:12:02.607Z,65920
2017-08-15T07:12:56.709Z,61024
2017-08-15T07:13:50.720Z,53472
2017-08-15T07:14:51.873Z,60672
2017-08-15T07:15:40.907Z,59488
2017-08-15T07:16:28.916Z,57184
2017-08-15T07:17:34.987Z,38272
2017-08-15T07:18:29.168Z,26464
2017-08-15T07:19:23.047Z,31744
2017-08-15T07:20:11.214Z,24672
2017-08-15T07:21:05.165Z,23776
2017-08-15T07:21:54.157Z,25344
2017-08-15T07:22:49.320Z,28640
2017-08-15T07:23:38.301Z,27328
2017-08-15T07:24:26.352Z,29664
2017-08-15T07:25:20.484Z,27808
2017-08-15T07:26:15.593Z,31424
2017-08-15T07:27:04.665Z,35808
2017-08-15T07:28:04.718Z,33824
2017-08-15T07:28:53.769Z,32000
2017-08-15T07:29:47.884Z,30624
2017-08-15T07:30:42.824Z,28960
2017-08-15T07:31:42.853Z,34304
2017-08-15T07:32:37.028Z,28032
2017-08-15T07:33:38.084Z,33888
2017-08-15T07:34:27.189Z,60416
2017-08-15T07:35:21.165Z,46880
2017-08-15T07:36:09.239Z,36032
2017-08-15T07:37:02.728Z,52064
2017-08-15T07:37:52.416Z,54656
2017-08-15T07:38:46.401Z,49536
2017-08-15T07:39:40.483Z,34496
2017-08-15T07:40:29.560Z,38496
2017-08-15T07:41:18.611Z,48416
2017-08-15T07:42:12.586Z,51072
2017-08-15T07:43:06.634Z,49056
2017-08-15T07:44:01.885Z,44800
2017-08-15T07:44:56.855Z,42752
2017-08-15T07:45:50.896Z,46080
2017-08-15T07:46:44.871Z,49088
2017-08-15T07:47:32.974Z,51968
2017-08-15T07:48:22.071Z,50528
2017-08-15T07:49:10.994Z,50720
2017-08-15T07:50:00.181Z,53600
2017-08-15T07:50:54.196Z,57824
2017-08-15T07:51:49.293Z,57568
2017-08-15T07:52:37.414Z,54240
2017-08-15T07:53:31.497Z,53536
2017-08-15T07:54:20.535Z,53216
2017-08-15T07:55:20.585Z,53152
2017-08-15T07:56:14.675Z,53184
2017-08-15T07:57:03.639Z,53504
2017-08-15T07:57:52.704Z,54176
2017-08-15T07:58:41.806Z,54112
2017-08-15T07:59:35.808Z,54560
2017-08-15T08:00:35.865Z,55904
2017-08-15T08:01:24.084Z,51648
2017-08-15T08:02:18.051Z,48544
2017-08-15T08:03:12.112Z,47552
2017-08-15T08:04:00.199Z,44960
2017-08-15T08:04:55.274Z,48064
2017-08-15T08:05:44.338Z,53568
2017-08-15T08:06:33.375Z,55456
2017-08-15T08:07:27.348Z,53984
2017-08-15T08:08:16.393Z,48384
2017-08-15T08:09:05.587Z,48032
2017-08-15T08:09:59.760Z,47040
2017-08-15T08:10:53.628Z,46528
2017-08-15T08:11:42.701Z,48864
2017-08-15T08:12:31.836Z,47296
2017-08-15T08:13:20.978Z,46240
2017-08-15T08:14:10.065Z,46816
2017-08-15T08:14:59.148Z,47168
2017-08-15T08:15:53.332Z,55616
2017-08-15T08:16:41.360Z,52672
2017-08-15T08:17:35.426Z,48800
2017-08-15T08:18:29.396Z,51008
2017-08-15T08:19:23.560Z,54976
2017-08-15T08:20:23.620Z,59264
2017-08-15T08:21:24.715Z,66848
2017-08-15T08:22:19.751Z,61312
2017-08-15T08:23:13.824Z,53696
2017-08-15T08:24:13.836Z,55552
2017-08-15T08:25:07.942Z,63776
2017-08-15T08:25:56.122Z,63104
2017-08-15T08:26:45.298Z,62912
2017-08-15T08:27:33.249Z,59232
2017-08-15T08:28:22.375Z,62272
2017-08-15T08:29:16.429Z,62816
2017-08-15T08:30:10.636Z,60448
2017-08-15T08:30:59.529Z,60480
2017-08-15T08:31:47.668Z,63808
2017-08-15T08:32:42.759Z,62880
2017-08-15T08:33:31.805Z,62720
2017-08-15T08:34:26.944Z,61376
2017-08-15T08:35:20.995Z,65856
2017-08-15T08:36:15.089Z,58944
2017-08-15T08:37:09.154Z,58272
2017-08-15T08:37:58.187Z,61472
2017-08-15T08:38:52.324Z,53920
2017-08-15T08:39:47.499Z,53984
2017-08-15T08:40:35.459Z,52800
2017-08-15T08:41:29.509Z,56672
2017-08-15T08:42:23.700Z,56448
2017-08-15T08:43:29.712Z,58464
2017-08-15T08:44:30.821Z,51616
2017-08-15T08:45:30.878Z,57280
2017-08-15T08:46:25.956Z,56352
2017-08-15T08:47:20.996Z,44608
2017-08-15T08:48:10.246Z,39712
2017-08-15T08:49:05.142Z,38368
2017-08-15T08:50:00.257Z,38272
2017-08-15T08:51:00.317Z,36096
2017-08-15T08:52:00.335Z,34880
2017-08-15T08:52:55.550Z,35232
2017-08-15T08:53:55.584Z,34688
2017-08-15T08:54:49.759Z,35680
2017-08-15T08:55:43.769Z,33056
2017-08-15T08:56:38.839Z,31104
2017-08-15T08:57:33.846Z,29216
2017-08-15T08:58:33.944Z,28000
2017-08-15T08:59:23.026Z,27392
2017-08-15T09:00:18.383Z,26720
2017-08-15T09:01:12.293Z,26400
2017-08-15T09:02:01.310Z,26016
2017-08-15T09:02:55.470Z,25760
2017-08-15T09:03:43.519Z,25632
2017-08-15T09:04:31.655Z,25664
2017-08-15T09:05:25.679Z,25632
2017-08-15T09:06:19.662Z,25984
2017-08-15T09:07:19.734Z,26432
2017-08-15T09:08:13.771Z,27136
2017-08-15T09:09:07.927Z,27936
2017-08-15T09:10:01.921Z,28896
2017-08-15T09:11:01.992Z,30304
2017-08-15T09:11:56.057Z,31392
2017-08-15T09:12:56.201Z,31840
2017-08-15T09:13:45.147Z,32864
2017-08-15T09:14:34.263Z,35072
2017-08-15T09:15:22.346Z,33696
2017-08-15T09:16:17.294Z,35008
2017-08-15T09:17:06.463Z,34784
2017-08-15T09:18:06.522Z,33920
2017-08-15T09:18:55.681Z,35264
2017-08-15T09:19:50.697Z,34144
2017-08-15T09:20:39.750Z,36000
2017-08-15T09:21:33.819Z,37536
2017-08-15T09:22:33.824Z,35328
2017-08-15T09:23:27.912Z,35488
2017-08-15T09:24:28.052Z,36320
2017-08-15T09:25:22.078Z,37952
2017-08-15T09:26:11.121Z,37984
2017-08-15T09:27:06.215Z,39840
2017-08-15T09:28:01.336Z,40512
2017-08-15T09:29:01.480Z,40864
2017-08-15T09:30:01.509Z,40736
2017-08-15T09:31:02.640Z,42048
2017-08-15T09:32:03.608Z,41280
2017-08-15T09:32:58.731Z,42656
2017-08-15T09:33:53.783Z,42848
2017-08-15T09:34:47.813Z,42816
2017-08-15T09:35:41.893Z,42400
2017-08-15T09:36:35.944Z,42336
2017-08-15T09:37:25.065Z,41696
2017-08-15T09:38:13.139Z,40960
2017-08-15T09:39:07.229Z,40128
2017-08-15T09:40:01.365Z,39200
2017-08-15T09:40:56.422Z,38176
2017-08-15T09:41:45.471Z,38304
2017-08-15T09:42:39.608Z,37536
2017-08-15T09:43:27.686Z,37472
2017-08-15T09:44:21.662Z,37312
2017-08-15T09:45:16.813Z,37408
2017-08-15T09:46:05.857Z,37216
2017-08-15T09:46:54.900Z,37664
2017-08-15T09:47:49.042Z,37600
2017-08-15T09:48:43.070Z,37760
2017-08-15T09:49:43.087Z,37696
2017-08-15T09:50:31.152Z,37600
2017-08-15T09:51:26.312Z,37312
2017-08-15T09:52:20.370Z,37280
2017-08-15T09:53:20.563Z,37248
2017-08-15T09:54:20.582Z,37600
2017-08-15T09:55:09.629Z,37280
2017-08-15T09:56:03.657Z,37440
2017-08-15T09:56:52.770Z,37632
2017-08-15T09:57:40.884Z,37472
2017-08-15T09:58:34.943Z,36960
2017-08-15T09:59:29.963Z,36800
2017-08-15T10:00:19.181Z,36736
2017-08-15T10:01:08.074Z,36256
2017-08-15T10:02:08.132Z,36256
2017-08-15T10:03:08.304Z,36256
2017-08-15T10:04:02.394Z,36384
2017-08-15T10:04:51.450Z,36256
2017-08-15T10:05:45.454Z,35872
2017-08-15T10:06:45.562Z,35552
2017-08-15T10:07:46.697Z,35072
2017-08-15T10:08:41.665Z,35104
2017-08-15T10:09:36.863Z,34848
2017-08-15T10:10:24.876Z,34592
2017-08-15T10:11:19.996Z,34688
2017-08-15T10:12:09.057Z,34688
2017-08-15T10:13:03.070Z,34624
2017-08-15T10:13:52.182Z,34560
2017-08-15T10:14:40.293Z,34400
2017-08-15T10:15:35.345Z,34208
2017-08-15T10:16:35.473Z,34400
2017-08-15T10:17:35.579Z,34208
2017-08-15T10:18:30.653Z,34368
2017-08-15T10:19:18.798Z,34368
2017-08-15T10:20:12.728Z,34240
2017-08-15T10:21:12.806Z,34208
2017-08-15T10:22:06.867Z,33760
2017-08-15T10:22:56.032Z,34016
2017-08-15T10:23:45.099Z,33760
2017-08-15T10:24:39.161Z,32832
2017-08-15T10:25:33.192Z,33120
2017-08-15T10:26:28.337Z,32864
2017-08-15T10:27:22.418Z,32544
2017-08-15T10:28:16.494Z,32160
2017-08-15T10:29:17.460Z,31904
2017-08-15T10:30:11.606Z,31744
2017-08-15T10:31:05.648Z,31392
2017-08-15T10:31:59.782Z,31072
2017-08-15T10:32:59.823Z,30720
2017-08-15T10:34:05.891Z,30528
2017-08-15T10:35:05.954Z,22304
2017-08-15T10:35:59.949Z,29920
2017-08-15T10:36:55.109Z,28896
2017-08-15T10:37:55.260Z,28032
2017-08-15T10:38:49.293Z,26880
2017-08-15T10:39:44.357Z,25440
2017-08-15T10:40:44.322Z,24160
2017-08-15T10:41:38.466Z,23040
2017-08-15T10:42:32.530Z,22048
2017-08-15T10:43:27.677Z,21184
2017-08-15T10:44:22.755Z,20192
2017-08-15T10:45:10.853Z,19360
2017-08-15T10:46:05.905Z,18144
2017-08-15T10:47:00.916Z,17504
2017-08-15T10:48:00.945Z,16608
2017-08-15T10:49:02.200Z,15904
2017-08-15T10:49:56.149Z,15228
2017-08-15T10:50:44.246Z,14980
2017-08-15T10:51:38.297Z,14856
2017-08-15T10:52:38.339Z,15000
2017-08-15T10:53:38.472Z,15340
2017-08-15T10:54:32.499Z,16064
2017-08-15T10:55:20.646Z,16864
2017-08-15T10:56:09.649Z,18048
2017-08-15T10:56:58.712Z,19552
2017-08-15T10:57:52.876Z,21408
2017-08-15T10:58:40.954Z,23168
2017-08-15T10:59:34.989Z,24992
2017-08-15T11:00:22.969Z,20032
2017-08-15T11:01:17.188Z,27840
2017-08-15T11:02:12.260Z,28960
2017-08-15T11:03:07.200Z,29824
2017-08-15T11:04:07.432Z,31136
2017-08-15T11:05:07.413Z,32384
2017-08-15T11:06:01.404Z,33856
2017-08-15T11:06:56.563Z,35840
2017-08-15T11:07:51.622Z,37632
2017-08-15T11:08:46.700Z,38400
2017-08-15T11:09:34.742Z,39040
2017-08-15T11:10:29.806Z,42752
2017-08-15T11:11:17.877Z,45760
2017-08-15T11:12:12.000Z,47680
2017-08-15T11:13:05.963Z,48320
2017-08-15T11:14:01.142Z,48736
2017-08-15T11:14:49.196Z,45344
2017-08-15T11:15:37.219Z,43392
2017-08-15T11:16:31.327Z,45728
2017-08-15T11:17:25.453Z,47840
2017-08-15T11:18:20.557Z,50112
2017-08-15T11:19:14.465Z,42080
2017-08-15T11:20:08.613Z,50144
2017-08-15T11:21:08.642Z,43264
2017-08-15T11:22:09.861Z,39424
2017-08-15T11:23:04.834Z,38176
2017-08-15T11:23:58.829Z,36800
2017-08-15T11:24:47.964Z,36224
2017-08-15T11:25:42.076Z,35776
2017-08-15T11:26:30.180Z,35680
2017-08-15T11:27:24.268Z,35936
2017-08-15T11:28:12.395Z,37024
2017-08-15T11:29:06.324Z,37216
2017-08-15T11:30:01.488Z,36416
2017-08-15T11:30:57.048Z,36832
2017-08-15T11:31:50.673Z,37536
2017-08-15T11:32:44.689Z,37632
2017-08-15T11:33:44.789Z,37408
2017-08-15T11:34:38.846Z,37888
2017-08-15T11:35:32.972Z,38816
2017-08-15T11:36:22.043Z,39232
2017-08-15T11:37:11.068Z,40384
2017-08-15T11:37:59.143Z,41184
2017-08-15T11:38:53.245Z,41632
2017-08-15T11:39:41.388Z,40736
2017-08-15T11:40:35.445Z,40384
2017-08-15T11:41:35.446Z,41248
2017-08-15T11:42:30.555Z,42912